Time;durP1;ratioP1;P1;durP2;ratioP2;P2;SDS_P1;SDS_P2;PMS_P1;PMS_P2;Temp;Humidity;BMP_temperature;BMP_pressure;BME280_temperature;BME280_humidity;BME280_pressure;Samples;Min_cycle;Max_cycle;Signal;HPM_P1;HPM_P2
2022/07/01 06:26:24;;;;;;;6.83;4.85;;;;;;;30.98;43.52;99843.81;1743230;79;21554;-60
2022/07/01 06:28:51;;;;;;;10.00;5.53;;;;;;;30.97;43.01;99842.67;1760959;80;21411;-59
2022/07/01 06:31:18;;;;;;;7.08;5.25;;;;;;;31.16;42.99;99844.73;1757039;80;21501;-59
2022/07/01 06:33:44;;;;;;;6.87;4.37;;;;;;;31.33;42.80;99844.47;1761957;79;21462;-59
2022/07/01 06:36:13;;;;;;;5.05;4.65;;;;;;;31.48;42.70;99842.52;1758231;79;20993;-60
2022/07/01 06:38:39;;;;;;;4.40;4.00;;;;;;;31.48;41.80;99834.37;1742214;80;22296;-58
2022/07/01 06:43:50;;;;;;;6.00;4.33;;;;;;;31.49;41.27;99831.96;1757583;79;20983;-59
2022/07/01 06:46:17;;;;;;;4.73;4.30;;;;;;;31.60;41.49;99825.98;1751730;79;21601;-60
2022/07/01 06:48:44;;;;;;;4.93;4.47;;;;;;;31.80;41.14;99822.58;1749873;79;20946;-60
2022/07/01 06:51:11;;;;;;;4.20;3.90;;;;;;;31.88;41.34;99825.13;1758466;79;21938;-59
2022/07/01 06:53:38;;;;;;;4.45;4.08;;;;;;;31.99;41.15;99828.63;1744485;79;21478;-58
2022/07/01 06:56:05;;;;;;;5.22;3.90;;;;;;;32.09;40.50;99828.30;1762984;79;21514;-59
2022/07/01 06:58:32;;;;;;;5.25;4.70;;;;;;;32.10;40.13;99827.27;1763340;79;21679;-58
2022/07/01 07:00:59;;;;;;;5.12;3.72;;;;;;;32.16;40.21;99825.09;1758253;79;21553;-59
2022/07/01 07:03:25;;;;;;;4.15;3.80;;;;;;;32.31;39.91;99823.59;1763412;79;21809;-59
2022/07/01 07:05:53;;;;;;;4.87;4.03;;;;;;;32.38;39.34;99820.38;1759835;79;21533;-59
2022/07/01 07:08:19;;;;;;;5.35;3.90;;;;;;;32.51;38.60;99817.37;1734887;80;21451;-59
2022/07/01 07:10:46;;;;;;;4.83;3.42;;;;;;;32.62;38.56;99815.97;1750786;79;21566;-59
2022/07/01 07:13:12;;;;;;;4.95;4.03;;;;;;;32.66;38.64;99819.42;1763077;79;21423;-59
2022/07/01 07:15:42;;;;;;;4.40;4.10;;;;;;;32.82;38.54;99821.47;1763176;80;21742;-58
2022/07/01 07:18:08;;;;;;;4.67;3.92;;;;;;;32.92;38.43;99815.91;1757260;80;21544;-59
2022/07/01 07:20:35;;;;;;;5.20;4.80;;;;;;;32.96;38.36;99810.89;1754024;78;21522;-59
2022/07/01 07:23:02;;;;;;;4.95;4.55;;;;;;;32.96;38.36;99810.89;1752299;79;21572;-59
2022/07/01 07:25:28;;;;;;;4.70;4.30;;;;;;;33.09;38.16;99812.80;1738599;79;21505;-59
2022/07/01 07:27:55;;;;;;;5.55;4.70;;;;;;;33.19;37.81;99811.91;1756731;79;22107;-59
2022/07/01 07:30:22;;;;;;;4.90;4.50;;;;;;;33.40;38.22;99807.27;1756677;79;21442;-59
2022/07/01 07:32:48;;;;;;;7.03;4.62;;;;;;;33.55;38.10;99806.53;1764031;80;21509;-59
2022/07/01 07:35:15;;;;;;;5.42;4.50;;;;;;;33.49;37.27;99803.27;1768352;79;21568;-60
2022/07/01 07:37:42;;;;;;;6.33;4.95;;;;;;;33.60;37.24;99799.07;1763253;80;21532;-59
2022/07/01 07:40:12;;;;;;;5.58;4.95;;;;;;;33.68;37.12;99795.64;1758799;80;21612;-59
2022/07/01 07:42:39;;;;;;;5.12;4.28;;;;;;;33.68;37.18;99794.78;1764099;80;21550;-59
2022/07/01 07:45:08;;;;;;;5.62;4.20;;;;;;;33.65;37.64;99797.41;1769699;79;21687;-58
2022/07/01 07:47:35;;;;;;;5.85;4.55;;;;;;;33.57;37.44;99796.26;1768266;80;21048;-59
2022/07/01 07:50:02;;;;;;;6.72;4.65;;;;;;;33.44;37.51;99798.47;1764148;79;21581;-59
2022/07/01 07:52:29;;;;;;;8.28;4.70;;;;;;;33.40;37.49;99797.72;1767536;80;21936;-59
2022/07/01 07:54:56;;;;;;;7.28;4.72;;;;;;;33.45;37.45;99796.05;1763270;79;21434;-59
2022/07/01 07:57:23;;;;;;;4.90;4.50;;;;;;;33.43;37.86;99790.50;1761311;79;21478;-59
2022/07/01 07:59:49;;;;;;;8.50;5.28;;;;;;;33.47;37.91;99785.77;1755324;79;21427;-59
2022/07/01 08:02:16;;;;;;;4.30;3.98;;;;;;;33.31;37.46;99784.33;1760935;80;21530;-59
2022/07/01 08:04:42;;;;;;;4.92;4.60;;;;;;;33.33;37.85;99784.95;1767153;80;21797;-59
2022/07/01 08:07:09;;;;;;;5.05;4.47;;;;;;;33.33;38.12;99784.95;1744790;79;21553;-59
2022/07/01 08:09:37;;;;;;;9.58;4.22;;;;;;;33.44;37.51;99779.93;1754183;79;21536;-59
2022/07/01 08:12:04;;;;;;;5.50;4.42;;;;;;;33.50;38.39;99784.52;1760934;79;21594;-59
2022/07/01 08:14:31;;;;;;;5.95;4.40;;;;;;;33.65;36.98;99772.05;1761419;80;21626;-59
2022/07/01 08:16:57;;;;;;;6.92;4.20;;;;;;;33.67;35.77;99772.14;1761714;79;21913;-59
2022/07/01 08:19:24;;;;;;;3.67;3.37;;;;;;;33.75;36.36;99771.06;1766849;80;21600;-59
2022/07/01 08:21:50;;;;;;;6.40;3.58;;;;;;;33.75;35.29;99776.52;1768610;79;21648;-59
2022/07/01 08:24:17;;;;;;;6.25;4.37;;;;;;;33.83;35.76;99774.08;1766570;79;21611;-59
2022/07/01 08:26:43;;;;;;;6.03;4.30;;;;;;;33.90;36.54;99779.83;1757197;79;21568;-59
2022/07/01 08:29:11;;;;;;;4.75;4.35;;;;;;;33.95;36.25;99779.20;1766974;80;21798;-59
2022/07/01 08:31:37;;;;;;;6.27;3.93;;;;;;;34.03;36.01;99778.11;1761450;79;21446;-59
2022/07/01 08:34:04;;;;;;;5.25;4.55;;;;;;;34.09;35.58;99773.98;1766192;79;21568;-59
2022/07/01 08:36:30;;;;;;;5.57;4.07;;;;;;;34.25;35.44;99774.06;1761960;80;21463;-59
2022/07/01 08:38:57;;;;;;;4.62;4.08;;;;;;;34.43;34.56;99764.30;1759745;79;21546;-60
2022/07/01 08:41:24;;;;;;;4.62;4.03;;;;;;;34.51;33.68;99763.53;1760464;79;22065;-60
2022/07/01 08:43:50;;;;;;;4.40;4.00;;;;;;;34.65;34.23;99760.70;1760471;80;21511;-60
2022/07/01 08:46:17;;;;;;;6.22;4.42;;;;;;;34.71;34.43;99760.67;1772674;79;21477;-59
2022/07/01 08:48:44;;;;;;;4.50;4.20;;;;;;;34.84;34.76;99761.65;1761167;79;21529;-61
2022/07/01 08:51:12;;;;;;;5.05;3.98;;;;;;;34.78;33.80;99771.56;1769933;79;21690;-60
2022/07/01 08:53:38;;;;;;;;;;;;;;;34.64;33.51;99769.94;1764347;79;21994;-57
2022/07/01 08:58:50;;;;;;;4.20;3.90;;;;;;;34.63;33.86;99762.83;1769741;80;21206;-59
2022/07/01 09:01:24;;;;;;;9.00;4.50;;;;;;;34.40;33.66;99760.66;1759097;79;21780;-58
2022/07/01 09:03:54;;;;;;;4.78;4.20;;;;;;;34.56;33.56;99759.30;1755501;79;21469;-60
2022/07/01 09:06:23;;;;;;;6.33;4.45;;;;;;;34.50;33.91;99768.66;1764788;80;21820;-59
2022/07/01 09:08:50;;;;;;;7.80;3.87;;;;;;;34.44;33.90;99761.36;1764591;80;21430;-59
2022/07/01 09:11:19;;;;;;;;;;;;;;;34.25;34.18;99763.68;1756928;79;21442;-60
2022/07/01 09:13:48;;;;;;;4.87;4.05;;;;;;;34.27;35.12;99760.20;1758578;79;20459;-59
2022/07/01 09:16:16;;;;;;;5.05;4.47;;;;;;;34.23;34.92;99759.80;1734524;80;21600;-60
2022/07/01 09:19:03;;;;;;;5.00;4.50;;;;;;;34.47;34.48;99757.34;1756973;79;21819;-60
2022/07/01 09:21:30;;;;;;;4.97;4.50;;;;;;;34.56;34.31;99755.20;1760284;79;21060;-61
2022/07/01 09:24:23;;;;;;;7.12;4.80;;;;;;;34.77;33.65;99760.32;1763779;79;21489;-61
2022/07/01 09:27:00;;;;;;;8.13;5.60;;;;;;;34.98;33.73;99763.23;1764501;79;21478;-62
2022/07/01 09:29:34;;;;;;;5.60;4.55;;;;;;;35.08;34.13;99762.72;1749703;79;20988;-61
2022/07/01 09:32:03;;;;;;;5.95;5.25;;;;;;;35.15;34.39;99762.14;1752728;79;21828;-61
2022/07/01 09:34:37;;;;;;;5.97;5.47;;;;;;;35.27;34.28;99758.17;1758608;79;21541;-60
2022/07/01 09:37:04;;;;;;;6.25;4.92;;;;;;;35.19;34.09;99759.80;1753064;79;21020;-61
2022/07/01 09:39:46;;;;;;;5.12;4.70;;;;;;;35.18;34.56;99757.61;1765041;78;21411;-61
2022/07/01 09:42:14;;;;;;;8.35;5.17;;;;;;;35.18;34.59;99752.14;1768313;79;21028;-60
2022/07/01 09:45:06;;;;;;;5.67;5.28;;;;;;;35.06;34.45;99750.65;1769024;79;21768;-60
2022/07/01 09:47:34;;;;;;;6.33;5.42;;;;;;;35.04;34.03;99755.50;1762440;79;21676;-61
2022/07/01 09:50:02;;;;;;;5.83;5.35;;;;;;;35.13;34.05;99757.40;1771515;79;21241;-59
2022/07/01 09:52:28;;;;;;;6.08;5.55;;;;;;;35.14;33.60;99754.16;1764431;80;21186;-59
2022/07/01 09:54:55;;;;;;;7.77;5.50;;;;;;;35.17;34.18;99750.96;1774528;80;21044;-59
2022/07/01 09:57:22;;;;;;;5.33;4.97;;;;;;;35.19;33.38;99743.41;1764240;79;21734;-59
2022/07/01 09:59:51;;;;;;;9.00;5.58;;;;;;;35.22;33.93;99741.06;1754457;80;21530;-59
2022/07/01 10:02:21;;;;;;;5.45;4.92;;;;;;;35.31;33.63;99741.63;1750760;79;21664;-58
2022/07/01 10:04:53;;;;;;;6.58;4.50;;;;;;;35.28;33.50;99742.06;1747652;79;21537;-59
2022/07/01 10:08:11;;;;;;;6.72;4.67;;;;;;;35.13;33.75;99742.37;1757897;79;21521;-58
2022/07/01 10:10:49;;;;;;;5.33;4.53;;;;;;;34.99;33.55;99746.30;1757773;79;21824;-58
2022/07/01 10:13:20;;;;;;;;;;;;;;;34.98;33.76;99739.16;1760793;79;21639;-58
2022/07/01 10:15:48;;;;;;;5.42;4.45;;;;;;;35.04;33.10;99739.11;1767831;79;20163;-59
2022/07/01 10:18:24;;;;;;;5.30;4.58;;;;;;;35.12;33.69;99739.36;1743934;79;21739;-58
2022/07/01 10:20:51;;;;;;;5.12;4.40;;;;;;;35.24;33.13;99743.03;1756588;78;21525;-59
2022/07/01 10:23:21;;;;;;;4.80;4.40;;;;;;;35.25;33.28;99735.16;1750945;79;21776;-58
2022/07/01 10:25:49;;;;;;;6.28;4.28;;;;;;;35.33;33.17;99738.66;1759937;78;21560;-59
2022/07/01 10:28:42;;;;;;;6.30;4.40;;;;;;;35.41;33.39;99732.36;1764077;79;21751;-58
2022/07/01 10:31:15;;;;;;;4.90;4.40;;;;;;;35.52;33.06;99720.38;1740746;79;21593;-59
2022/07/01 10:33:55;;;;;;;7.72;4.47;;;;;;;35.63;32.15;99727.28;1748572;79;21429;-60
2022/07/01 10:36:33;;;;;;;4.67;4.35;;;;;;;35.54;32.41;99727.28;1749898;79;21862;-58
2022/07/01 10:39:14;;;;;;;5.47;4.42;;;;;;;35.40;33.04;99732.61;1738238;79;21386;-59
2022/07/01 10:41:59;;;;;;;6.97;4.10;;;;;;;35.40;32.94;99730.70;1753534;79;21585;-59
2022/07/01 10:44:25;;;;;;;5.17;4.28;;;;;;;35.46;33.18;99730.33;1755611;80;21561;-58
2022/07/01 10:47:04;;;;;;;4.72;3.90;;;;;;;35.56;32.95;99718.31;1754274;79;21682;-58
2022/07/01 10:49:47;;;;;;;5.10;4.45;;;;;;;35.61;32.16;99713.02;1725610;80;21434;-59
2022/07/01 10:52:20;;;;;;;5.80;4.40;;;;;;;35.72;32.54;99714.19;1763769;79;21324;-58
2022/07/01 10:54:52;;;;;;;4.60;4.05;;;;;;;35.79;31.38;99715.45;1767131;79;21501;-59
2022/07/01 10:57:29;;;;;;;4.60;4.05;;;;;;;35.82;31.27;99705.44;1765862;79;21718;-59
2022/07/01 11:00:03;;;;;;;6.20;4.10;;;;;;;35.93;31.02;99704.66;1750451;79;21596;-59
2022/07/01 11:02:32;;;;;;;3.80;3.40;;;;;;;35.99;30.37;99706.47;1745322;80;22008;-59
2022/07/01 11:05:13;;;;;;;3.72;3.10;;;;;;;36.00;29.81;99708.15;1761051;80;21682;-59
2022/07/01 11:07:44;;;;;;;2.90;2.72;;;;;;;35.89;29.03;99697.16;1754193;79;21430;-58
2022/07/01 11:10:13;;;;;;;3.02;2.80;;;;;;;36.09;28.86;99701.80;1755446;79;21514;-59
2022/07/01 11:12:43;;;;;;;3.20;2.90;;;;;;;36.07;28.48;99703.94;1752610;79;21155;-59
2022/07/01 11:15:10;;;;;;;5.85;3.35;;;;;;;36.16;27.93;99701.72;1742526;80;21898;-59
2022/07/01 11:17:46;;;;;;;3.62;2.85;;;;;;;36.25;27.94;99703.09;1756514;79;21458;-59
2022/07/01 11:20:12;;;;;;;5.15;3.60;;;;;;;36.33;28.01;99697.83;1747238;79;21063;-59
2022/07/01 11:22:39;;;;;;;3.20;3.00;;;;;;;36.31;27.32;99697.23;1755329;79;21513;-59
2022/07/01 11:25:08;;;;;;;3.45;3.22;;;;;;;36.25;28.11;99694.34;1710542;80;21554;-59
2022/07/01 11:27:35;;;;;;;3.20;2.95;;;;;;;36.31;27.42;99693.12;1762177;78;21867;-59
2022/07/01 11:30:12;;;;;;;5.60;3.43;;;;;;;36.34;27.77;99696.23;1749183;79;21578;-61
2022/07/01 11:32:44;;;;;;;5.62;3.58;;;;;;;36.31;27.41;99691.21;1758276;79;21611;-58
2022/07/01 11:41:05;;;;;;;3.05;2.52;;;;;;;36.37;27.17;99688.90;1757092;79;21719;-62
2022/07/01 11:43:37;;;;;;;3.22;2.95;;;;;;;36.49;27.69;99691.69;1746755;80;21412;-58
2022/07/01 11:46:05;;;;;;;3.02;2.77;;;;;;;36.48;26.31;99690.55;1751422;79;21529;-59
2022/07/01 11:48:43;;;;;;;4.53;2.80;;;;;;;36.46;26.93;99684.48;1753637;80;21145;-59
2022/07/01 11:51:15;;;;;;;4.08;2.58;;;;;;;36.55;27.64;99686.63;1751902;80;21557;-60
2022/07/01 11:53:46;;;;;;;6.17;3.05;;;;;;;36.65;27.49;99687.42;1741362;80;22002;-59
2022/07/01 11:56:13;;;;;;;5.05;3.20;;;;;;;36.60;27.39;99684.03;1758324;79;21612;-59
2022/07/01 11:58:46;;;;;;;4.10;2.90;;;;;;;36.71;27.62;99681.56;1764449;79;21546;-60
2022/07/01 12:01:28;;;;;;;4.00;3.15;;;;;;;36.82;27.60;99685.67;1760420;79;21533;-59
2022/07/01 12:03:57;;;;;;;3.22;2.92;;;;;;;36.93;27.09;99677.17;1759382;79;21620;-59
2022/07/01 12:06:23;;;;;;;3.00;2.80;;;;;;;36.99;27.28;99669.91;1765372;79;21909;-59
2022/07/01 12:08:51;;;;;;;3.10;2.80;;;;;;;36.99;26.98;99678.12;1755671;80;21450;-59
2022/07/01 12:11:18;;;;;;;3.55;3.25;;;;;;;37.09;27.37;99669.30;1764086;80;21584;-59
2022/07/01 12:13:47;;;;;;;;;;;;;;;37.16;27.36;99675.53;1767344;78;21564;-59
2022/07/01 12:16:13;;;;;;;3.42;2.83;;;;;;;37.18;26.27;99670.64;1737091;80;20448;-59
2022/07/01 12:19:00;;;;;;;9.27;3.20;;;;;;;37.12;27.25;99675.14;1764994;80;21988;-60
2022/07/01 12:21:28;;;;;;;5.37;3.17;;;;;;;37.17;26.93;99667.08;1764778;80;21580;-60
2022/07/01 12:24:08;;;;;;;;;;;;;;;37.19;27.10;99668.21;1758424;79;21429;-61
2022/07/01 12:26:35;;;;;;;3.77;3.35;;;;;;;37.25;27.22;99669.16;1756680;80;20160;-60
2022/07/01 12:29:01;;;;;;;2.60;2.40;;;;;;;37.23;27.12;99661.17;1761008;80;21117;-60
2022/07/01 12:31:28;;;;;;;2.67;2.40;;;;;;;37.29;26.22;99662.94;1721262;81;21755;-59
2022/07/01 12:33:56;;;;;;;2.62;2.42;;;;;;;37.32;26.31;99661.09;1670967;83;21931;-59
2022/07/01 12:36:22;;;;;;;3.50;2.50;;;;;;;37.48;26.92;99656.76;1696595;82;21506;-60
2022/07/01 12:39:08;;;;;;;4.62;2.62;;;;;;;37.52;26.19;99662.05;1689156;83;21549;-59
2022/07/01 12:41:36;;;;;;;3.30;2.40;;;;;;;37.44;25.95;99661.61;1644221;83;21550;-60
2022/07/01 12:44:06;;;;;;;;;;;;;;;37.46;26.10;99656.17;1697227;83;21752;-59
2022/07/01 12:46:33;;;;;;;3.95;2.90;;;;;;;37.50;25.97;99654.60;1674057;83;20566;-59
2022/07/01 12:49:00;;;;;;;2.92;2.65;;;;;;;37.43;25.07;99653.08;1729777;81;21558;-60
2022/07/01 12:51:32;;;;;;;3.17;2.85;;;;;;;37.35;25.43;99657.03;1698199;83;22167;-60
2022/07/01 12:53:59;;;;;;;4.03;2.77;;;;;;;37.43;25.97;99654.45;1698642;83;21488;-60
2022/07/01 12:56:28;;;;;;;4.35;3.20;;;;;;;37.48;26.41;99660.88;1698627;83;21538;-59
2022/07/01 12:58:55;;;;;;;5.22;3.05;;;;;;;37.65;26.71;99654.66;1763095;79;21434;-60
2022/07/01 13:01:21;;;;;;;3.80;3.10;;;;;;;37.75;26.34;99656.23;1769223;79;21635;-60
2022/07/01 13:03:49;;;;;;;;;;;;;;;37.77;25.65;99650.81;1762591;79;21544;-60
2022/07/01 13:06:15;;;;;;;4.15;2.90;;;;;;;37.81;25.53;99649.78;1763291;79;20138;-60
2022/07/01 13:08:42;;;;;;;3.20;3.00;;;;;;;37.64;25.36;99651.10;1761073;79;22172;-60
2022/07/01 13:11:08;;;;;;;4.08;2.67;;;;;;;37.52;25.71;99647.52;1754539;79;21710;-60
2022/07/01 13:13:36;;;;;;;3.02;2.70;;;;;;;37.50;26.36;99648.30;1762970;80;21581;-60
2022/07/01 13:16:05;;;;;;;3.20;2.52;;;;;;;37.50;26.57;99652.41;1767787;79;21689;-60
2022/07/01 13:18:33;;;;;;;5.30;2.85;;;;;;;37.51;26.19;99648.06;1750552;79;21512;-60
2022/07/01 13:21:00;;;;;;;7.20;3.10;;;;;;;37.65;25.93;99641.78;1751606;80;22076;-59
2022/07/01 13:23:26;;;;;;;6.00;2.80;;;;;;;37.66;25.21;99648.12;1762113;79;21533;-60
2022/07/01 13:25:53;;;;;;;2.83;2.58;;;;;;;37.65;25.29;99645.06;1763020;79;20993;-60
2022/07/01 13:28:19;;;;;;;9.48;3.08;;;;;;;37.69;25.49;99639.38;1760171;80;21447;-61
2022/07/01 13:30:46;;;;;;;2.75;2.55;;;;;;;37.67;25.49;99646.48;1758959;79;21411;-60
2022/07/01 13:33:13;;;;;;;3.20;2.67;;;;;;;37.64;25.41;99642.87;1763169;80;21853;-60
2022/07/01 13:35:40;;;;;;;2.77;2.42;;;;;;;37.62;24.57;99646.91;1756843;79;21549;-59
2022/07/01 13:38:06;;;;;;;3.85;2.50;;;;;;;37.59;24.53;99641.36;1719750;81;21531;-59
2022/07/01 13:40:33;;;;;;;7.77;2.83;;;;;;;37.52;24.71;99634.63;1692743;82;21799;-59
2022/07/01 13:42:59;;;;;;;3.72;2.60;;;;;;;37.52;24.66;99629.69;1752472;79;21545;-59
2022/07/01 13:45:26;;;;;;;3.17;2.80;;;;;;;37.45;24.80;99631.22;1749861;80;21787;-60
2022/07/01 13:47:53;;;;;;;2.90;2.33;;;;;;;37.50;25.08;99633.22;1749287;79;21671;-60
2022/07/01 13:50:20;;;;;;;8.65;2.67;;;;;;;37.57;25.28;99630.63;1754930;79;21621;-61
2022/07/01 13:52:48;;;;;;;3.58;2.45;;;;;;;37.64;24.50;99626.41;1756921;79;21488;-64
2022/07/01 13:55:15;;;;;;;4.80;4.40;;;;;;;37.70;24.34;99626.80;1743923;80;21450;-61
2022/07/01 13:57:41;;;;;;;3.13;2.93;;;;;;;37.74;23.98;99632.64;1758094;79;21775;-61
2022/07/01 14:00:09;;;;;;;3.33;2.92;;;;;;;37.78;24.54;99633.26;1754936;79;21064;-61
2022/07/01 14:02:36;;;;;;;2.83;2.55;;;;;;;37.77;24.13;99635.72;1759160;79;21628;-62
2022/07/01 14:05:04;;;;;;;3.83;2.47;;;;;;;37.81;23.87;99630.58;1719680;80;21563;-62
2022/07/01 14:07:31;;;;;;;3.17;2.40;;;;;;;37.75;23.71;99631.54;1760284;80;21420;-61
2022/07/01 14:09:58;;;;;;;2.95;2.30;;;;;;;37.77;23.72;99634.35;1755802;79;21984;-60
2022/07/01 14:12:24;;;;;;;3.45;2.10;;;;;;;37.79;23.49;99621.77;1762515;78;22168;-61
2022/07/01 14:14:53;;;;;;;2.57;2.10;;;;;;;37.74;23.08;99625.23;1766381;80;21568;-61
2022/07/01 14:17:21;;;;;;;2.72;2.52;;;;;;;37.77;23.92;99629.41;1770292;80;21158;-61
2022/07/01 14:19:49;;;;;;;5.80;2.07;;;;;;;37.86;24.03;99623.80;1763750;80;21577;-62
2022/07/01 14:22:15;;;;;;;4.50;2.22;;;;;;;37.92;23.02;99624.21;1757779;80;22218;-60
2022/07/01 14:24:42;;;;;;;2.80;2.10;;;;;;;38.03;23.47;99624.38;1752267;79;21518;-61
2022/07/01 14:27:09;;;;;;;3.05;2.50;;;;;;;38.07;23.51;99626.41;1764515;79;21564;-61
2022/07/01 14:29:35;;;;;;;4.83;2.45;;;;;;;38.08;23.11;99627.26;1766166;79;21432;-61
2022/07/01 14:32:03;;;;;;;5.10;2.30;;;;;;;38.13;23.49;99625.44;1766550;80;21549;-61
2022/07/01 14:34:29;;;;;;;;;;;;;;;38.62;22.95;99626.28;1765466;80;21879;-60
2022/07/01 14:36:55;;;;;;;4.67;2.87;;;;;;;39.06;21.84;99626.94;1761445;79;20416;-61
2022/07/01 14:39:22;;;;;;;4.72;3.60;;;;;;;39.78;20.99;99617.66;1767219;79;21440;-61
2022/07/01 14:41:50;;;;;;;3.62;3.08;;;;;;;40.62;20.49;99620.40;1765851;79;21505;-61
2022/07/01 14:44:17;;;;;;;4.87;2.80;;;;;;;41.39;20.12;99619.50;1758624;79;21567;-61
2022/07/01 14:46:44;;;;;;;4.22;3.92;;;;;;;42.07;19.46;99617.23;1763801;79;22905;-61
2022/07/01 14:49:12;;;;;;;2.42;2.20;;;;;;;42.69;18.85;99618.07;1758892;79;21650;-61
2022/07/01 14:51:39;;;;;;;7.78;4.10;;;;;;;43.35;18.68;99619.86;1768812;80;21100;-62
2022/07/01 14:54:08;;;;;;;3.05;2.08;;;;;;;43.94;18.42;99613.99;1764238;79;22015;-61
2022/07/01 14:56:35;;;;;;;2.83;2.22;;;;;;;44.40;17.73;99613.38;1748630;80;21455;-61
2022/07/01 14:59:03;;;;;;;6.58;5.83;;;;;;;44.95;16.99;99616.77;1745163;80;21892;-62
2022/07/01 15:01:31;;;;;;;3.77;2.50;;;;;;;45.34;17.07;99614.94;1741573;79;21517;-62
2022/07/01 15:03:57;;;;;;;2.58;1.90;;;;;;;45.85;16.78;99614.23;1750452;79;21519;-62
2022/07/01 15:06:24;;;;;;;1.95;1.75;;;;;;;46.32;16.19;99617.12;1732661;79;21491;-65
2022/07/01 15:08:50;;;;;;;1.98;1.80;;;;;;;46.57;15.60;99615.89;1739591;80;21627;-61
2022/07/01 15:11:17;;;;;;;1.75;1.57;;;;;;;46.51;15.66;99624.05;1749514;79;21829;-60
2022/07/01 15:13:44;;;;;;;3.35;1.47;;;;;;;46.76;15.64;99624.16;1736861;79;21818;-60
2022/07/01 15:16:10;;;;;;;3.45;2.02;;;;;;;47.25;15.43;99623.24;1738895;80;21572;-63
2022/07/01 15:18:37;;;;;;;4.90;1.75;;;;;;;47.74;14.96;99620.23;1744793;79;21559;-62
2022/07/01 15:21:04;;;;;;;;;;;;;;;48.11;14.67;99618.23;1741788;79;21091;-61
2022/07/01 15:23:31;;;;;;;6.45;1.77;;;;;;;48.25;14.57;99620.39;1725816;80;21163;-62
2022/07/01 15:25:57;;;;;;;;;;;;;;;48.40;14.50;99626.75;1741848;79;21554;-61
2022/07/01 15:28:25;;;;;;;2.65;1.82;;;;;;;48.40;14.45;99628.14;1748761;79;20505;-61
2022/07/01 15:30:52;;;;;;;4.03;1.67;;;;;;;48.44;14.69;99623.58;1755377;79;21078;-61
2022/07/01 15:33:20;;;;;;;4.12;1.75;;;;;;;47.82;15.00;99627.82;1755543;79;21640;-63
2022/07/01 15:35:46;;;;;;;3.65;1.70;;;;;;;46.89;15.48;99626.70;1749173;79;21732;-62
2022/07/01 15:38:13;;;;;;;2.30;1.70;;;;;;;45.91;15.63;99628.33;1756552;79;27171;-61
2022/07/01 15:40:41;;;;;;;5.20;1.90;;;;;;;45.16;16.31;99638.73;1765111;79;21435;-61
2022/07/01 15:43:08;;;;;;;3.45;1.70;;;;;;;44.56;16.96;99636.28;1749602;79;21715;-62
2022/07/01 15:45:35;;;;;;;1.87;1.60;;;;;;;44.22;17.02;99639.30;1742150;79;21630;-64
2022/07/01 15:48:08;;;;;;;2.85;1.70;;;;;;;43.89;17.32;99640.36;1748104;79;21601;-63
2022/07/01 15:50:40;;;;;;;4.05;1.80;;;;;;;44.28;17.20;99640.09;1740006;80;21570;-61
2022/07/01 15:53:09;;;;;;;1.87;1.67;;;;;;;45.08;16.21;99642.98;1735392;80;21691;-61
2022/07/01 15:55:38;;;;;;;3.77;1.72;;;;;;;45.61;15.42;99642.88;1751101;79;21435;-62
2022/07/01 15:58:04;;;;;;;4.25;1.60;;;;;;;45.87;15.31;99650.04;1753420;79;21548;-64
2022/07/01 16:00:32;;;;;;;2.12;1.90;;;;;;;46.18;14.94;99638.75;1746783;79;22112;-62
2022/07/01 16:02:59;;;;;;;6.42;1.72;;;;;;;46.32;15.01;99649.90;1745981;79;21429;-62
2022/07/01 16:05:26;;;;;;;4.05;1.90;;;;;;;45.57;15.41;99646.00;1740311;79;21003;-61
2022/07/01 16:08:00;;;;;;;2.15;1.52;;;;;;;44.49;16.06;99648.48;1740294;79;21780;-61
2022/07/01 16:10:48;;;;;;;5.97;1.77;;;;;;;43.70;16.76;99660.95;1746005;80;21032;-60
2022/07/01 16:13:16;;;;;;;3.67;1.50;;;;;;;43.06;17.08;99666.66;1718649;80;21772;-65
2022/07/01 16:15:50;;;;;;;1.87;1.70;;;;;;;42.69;17.50;99658.14;1762381;79;20978;-61
2022/07/01 16:18:18;;;;;;;1.92;1.60;;;;;;;42.96;17.45;99668.08;1744380;80;20994;-61
2022/07/01 16:20:46;;;;;;;;;;;;;;;43.58;16.58;99665.95;1697448;82;21559;-61
2022/07/01 16:23:24;;;;;;;3.37;1.47;;;;;;;43.64;16.64;99667.58;1672519;83;20154;-62
2022/07/01 16:25:51;;;;;;;1.70;1.60;;;;;;;43.45;16.99;99667.39;1737050;79;21780;-60
2022/07/01 16:28:18;;;;;;;4.03;1.47;;;;;;;43.05;16.96;99666.97;1753786;79;21494;-61
2022/07/01 16:30:45;;;;;;;2.12;1.65;;;;;;;42.23;17.56;99664.19;1737482;80;21678;-59
2022/07/01 16:33:13;;;;;;;2.58;1.60;;;;;;;41.37;18.03;99669.15;1733235;80;21033;-60
2022/07/01 16:35:53;;;;;;;6.35;1.70;;;;;;;40.52;18.70;99663.03;1744541;79;21447;-59
2022/07/01 16:38:32;;;;;;;4.97;1.55;;;;;;;39.60;19.48;99668.38;1742218;79;21744;-59
2022/07/01 16:41:12;;;;;;;3.70;1.67;;;;;;;38.78;20.47;99669.91;1748870;79;21655;-59
2022/07/01 16:43:47;;;;;;;2.25;1.77;;;;;;;38.27;21.02;99673.16;1750959;79;21686;-59
2022/07/01 16:46:17;;;;;;;2.05;1.72;;;;;;;37.68;21.66;99677.50;1742998;79;21566;-59
2022/07/01 16:48:49;;;;;;;1.72;1.62;;;;;;;37.17;22.39;99684.06;1739976;80;21425;-59
2022/07/01 16:51:18;;;;;;;2.12;1.92;;;;;;;36.77;22.80;99680.61;1735421;80;21727;-59
2022/07/01 16:53:45;;;;;;;2.77;1.92;;;;;;;36.35;23.39;99688.30;1741690;80;21626;-59
2022/07/01 16:56:22;;;;;;;1.95;1.75;;;;;;;36.11;23.57;99690.13;1764325;79;21404;-60
2022/07/01 16:59:34;;;;;;;6.10;2.27;;;;;;;34.37;26.08;99690.97;1775275;78;23239;-59
2022/07/01 17:02:02;;;;;;;1.87;1.77;;;;;;;35.10;25.24;99697.23;1730200;80;21579;-59
2022/07/01 17:04:29;;;;;;;3.98;1.65;;;;;;;35.10;25.24;99697.23;1655262;83;21900;-58
2022/07/01 17:06:57;;;;;;;2.37;2.17;;;;;;;34.87;25.25;99695.14;1674742;82;21650;-59
2022/07/01 17:09:24;;;;;;;3.37;2.02;;;;;;;34.67;25.47;99703.98;1685983;83;21461;-58
2022/07/01 17:11:51;;;;;;;3.87;2.25;;;;;;;34.51;25.81;99697.19;1690556;83;21496;-59
2022/07/01 17:14:18;;;;;;;2.10;1.90;;;;;;;34.30;26.23;99699.72;1689160;83;21014;-59
2022/07/01 17:16:45;;;;;;;2.00;1.90;;;;;;;34.11;26.33;99700.98;1687125;83;21763;-60
2022/07/01 17:19:12;;;;;;;3.00;1.90;;;;;;;33.94;26.52;99702.52;1690941;82;21531;-61
2022/07/01 17:21:41;;;;;;;2.92;1.77;;;;;;;33.76;26.91;99715.50;1690973;83;21424;-61
2022/07/01 17:24:13;;;;;;;2.25;2.05;;;;;;;33.66;27.09;99716.47;1703373;82;21570;-61
2022/07/01 17:27:00;;;;;;;3.20;1.80;;;;;;;33.49;27.35;99714.20;1702797;82;21483;-61
2022/07/01 17:29:34;;;;;;;4.70;2.20;;;;;;;33.30;27.75;99721.34;1706237;82;21948;-61
2022/07/01 17:32:06;;;;;;;2.30;2.10;;;;;;;33.18;27.92;99725.78;1684019;82;21557;-60
2022/07/01 17:34:33;;;;;;;2.40;1.92;;;;;;;33.02;27.97;99727.53;1703178;82;21538;-58
2022/07/01 17:37:01;;;;;;;2.10;2.00;;;;;;;32.90;28.34;99732.78;1704847;82;21611;-58
2022/07/01 17:39:37;;;;;;;2.12;1.75;;;;;;;32.75;28.39;99728.89;1697926;82;21590;-58
2022/07/01 17:42:04;;;;;;;3.98;2.27;;;;;;;32.66;28.58;99728.78;1702337;82;21605;-59
2022/07/01 17:44:31;;;;;;;;;;;;;;;32.57;28.64;99731.71;1704691;82;21534;-59
2022/07/01 17:46:59;;;;;;;2.40;2.20;;;;;;;32.45;28.99;99735.21;1713023;82;20468;-59
2022/07/01 17:49:28;;;;;;;2.17;1.98;;;;;;;32.31;29.04;99734.35;1694081;83;21543;-59
2022/07/01 17:51:55;;;;;;;3.55;2.50;;;;;;;32.20;29.28;99741.22;1698909;82;20983;-60
2022/07/01 17:54:24;;;;;;;2.72;2.33;;;;;;;32.09;29.46;99744.00;1704027;82;21534;-59
2022/07/01 17:56:51;;;;;;;4.60;2.52;;;;;;;31.99;29.49;99748.43;1700654;82;21575;-59
2022/07/01 17:59:19;;;;;;;2.13;2.00;;;;;;;31.89;29.46;99749.34;1688630;82;21547;-59
2022/07/01 18:01:47;;;;;;;2.85;1.87;;;;;;;31.81;29.91;99751.68;1686892;82;21558;-59
2022/07/01 18:04:17;;;;;;;3.02;2.22;;;;;;;31.69;30.00;99757.91;1684597;82;20958;-59
2022/07/01 18:06:46;;;;;;;4.85;2.35;;;;;;;31.57;30.08;99754.89;1692469;83;22169;-60
2022/07/01 18:09:15;;;;;;;4.67;2.02;;;;;;;31.52;30.18;99756.86;1694649;82;21552;-59
2022/07/01 18:12:08;;;;;;;3.47;1.67;;;;;;;31.41;30.08;99754.14;1693135;82;21570;-59
2022/07/01 18:14:47;;;;;;;2.40;2.20;;;;;;;31.32;30.16;99753.97;1681656;82;21549;-60
2022/07/01 18:17:48;;;;;;;1.85;1.75;;;;;;;31.19;30.59;99758.81;1694326;83;21575;-60
2022/07/01 18:21:02;;;;;;;4.45;2.27;;;;;;;31.12;30.70;99762.48;1699659;82;21885;-59
2022/07/01 18:23:36;;;;;;;2.22;2.00;;;;;;;31.01;31.14;99767.42;1688018;82;21555;-59
2022/07/01 18:26:04;;;;;;;2.17;2.05;;;;;;;30.88;31.12;99777.30;1683660;82;21674;-60